Time;durP1;ratioP1;P1;durP2;ratioP2;P2;SDS_P1;SDS_P2;PMS_P1;PMS_P2;Temp;Humidity;BMP_temperature;BMP_pressure;BME280_temperature;BME280_humidity;BME280_pressure;Samples;Min_cycle;Max_cycle;Signal;HPM_P1;HPM_P2
2023/07/18 00:02:21;;;;;;;7.65;4.30;;;21.50;23.60;;;;;;5084901;28;20689;-86
2023/07/18 00:04:48;;;;;;;6.43;4.40;;;21.50;25.10;;;;;;5101111;28;20571;-86
2023/07/18 00:07:15;;;;;;;6.80;4.40;;;21.40;24.70;;;;;;5099690;28;20818;-85
2023/07/18 00:09:42;;;;;;;7.25;3.92;;;21.50;23.00;;;;;;5107934;28;20204;-85
2023/07/18 00:12:09;;;;;;;5.80;3.88;;;21.40;22.80;;;;;;5100680;28;20197;-86
2023/07/18 00:14:36;;;;;;;6.45;4.10;;;21.50;23.50;;;;;;5086375;28;20188;-83
2023/07/18 00:17:05;;;;;;;7.25;4.00;;;21.50;25.10;;;;;;5106663;28;20219;-86
2023/07/18 00:19:33;;;;;;;7.95;4.32;;;21.40;23.70;;;;;;5108729;28;20211;-83
2023/07/18 00:22:00;;;;;;;6.32;4.03;;;21.40;23.20;;;;;;5105364;28;20229;-85
2023/07/18 00:24:28;;;;;;;7.38;3.67;;;21.40;23.70;;;;;;5111280;28;20211;-84
2023/07/18 00:26:57;;;;;;;4.38;3.35;;;21.40;22.90;;;;;;5108894;28;20216;-82
2023/07/18 00:29:23;;;;;;;8.38;4.13;;;21.40;23.00;;;;;;5111534;28;20278;-85
2023/07/18 00:31:50;;;;;;;7.00;3.75;;;21.50;21.30;;;;;;5105836;28;20659;-83
2023/07/18 00:34:18;;;;;;;10.07;3.85;;;21.40;22.10;;;;;;5108157;28;20203;-85
2023/07/18 00:36:45;;;;;;;8.43;4.43;;;21.40;22.40;;;;;;5105657;28;20246;-87
2023/07/18 00:39:13;;;;;;;6.05;4.00;;;21.50;23.00;;;;;;5105710;28;20196;-87
2023/07/18 00:41:40;;;;;;;7.22;4.20;;;21.40;25.00;;;;;;5105546;28;20200;-85
2023/07/18 00:44:07;;;;;;;6.50;4.03;;;21.30;23.90;;;;;;5106994;28;20199;-86
2023/07/18 00:46:34;;;;;;;6.25;3.50;;;21.30;24.40;;;;;;5102801;28;20196;-83
2023/07/18 00:49:01;;;;;;;6.25;3.90;;;21.30;24.60;;;;;;5107078;28;20191;-84
2023/07/18 00:51:30;;;;;;;7.40;3.70;;;21.30;25.50;;;;;;5108632;28;20192;-84
2023/07/18 00:53:58;;;;;;;7.32;3.63;;;21.40;24.90;;;;;;5104984;28;20196;-85
2023/07/18 00:56:25;;;;;;;6.63;3.70;;;21.30;25.70;;;;;;5110388;28;20722;-85
2023/07/18 00:58:52;;;;;;;5.55;3.97;;;21.30;25.80;;;;;;5108246;28;20209;-86
2023/07/18 01:01:19;;;;;;;5.18;3.70;;;21.30;24.70;;;;;;5102248;28;20204;-84
2023/07/18 01:03:46;;;;;;;5.05;3.60;;;21.30;25.10;;;;;;5111046;28;20647;-85
2023/07/18 01:06:13;;;;;;;5.57;3.80;;;21.30;25.00;;;;;;5104126;28;20576;-83
2023/07/18 01:08:42;;;;;;;7.13;3.78;;;21.30;25.10;;;;;;5108897;28;20196;-85
2023/07/18 01:11:10;;;;;;;6.70;4.10;;;21.20;26.50;;;;;;5109592;28;20203;-85
2023/07/18 01:13:37;;;;;;;6.18;3.97;;;21.20;26.50;;;;;;5108614;28;20288;-85
2023/07/18 01:16:04;;;;;;;6.90;3.95;;;21.10;25.80;;;;;;5112387;28;20246;-86
2023/07/18 01:18:31;;;;;;;7.45;3.75;;;21.10;24.90;;;;;;5102012;28;20223;-84
2023/07/18 01:20:59;;;;;;;5.45;3.75;;;21.00;25.10;;;;;;5083457;28;20671;-85
2023/07/18 01:23:28;;;;;;;7.68;3.90;;;20.90;27.80;;;;;;5088816;28;20199;-87
2023/07/18 01:25:55;;;;;;;5.40;3.65;;;20.80;26.40;;;;;;5102499;28;20211;-83
2023/07/18 01:28:22;;;;;;;6.90;4.28;;;20.50;26.60;;;;;;5090075;28;20219;-85
2023/07/18 01:30:49;;;;;;;5.07;3.58;;;20.40;28.20;;;;;;5105262;28;20766;-84
2023/07/18 01:33:16;;;;;;;7.05;3.80;;;20.20;29.60;;;;;;5107010;28;20194;-83
2023/07/18 01:35:43;;;;;;;4.13;3.70;;;20.20;29.30;;;;;;5097943;28;20200;-86
2023/07/18 01:38:10;;;;;;;5.63;3.70;;;20.20;30.30;;;;;;5099321;28;20203;-85
2023/07/18 01:40:39;;;;;;;6.30;3.80;;;20.10;31.40;;;;;;5103830;28;20245;-86
2023/07/18 01:43:05;;;;;;;7.80;4.20;;;20.00;32.10;;;;;;5110006;28;20823;-84
2023/07/18 01:45:32;;;;;;;6.18;3.75;;;19.90;34.10;;;;;;5100035;28;20203;-83
2023/07/18 01:47:59;;;;;;;9.73;4.03;;;19.80;36.10;;;;;;5107206;28;20574;-83
2023/07/18 01:50:26;;;;;;;5.90;3.70;;;19.60;37.40;;;;;;5101092;28;20188;-86
2023/07/18 01:52:53;;;;;;;8.35;3.92;;;19.50;38.00;;;;;;5098544;28;20266;-86
2023/07/18 01:55:20;;;;;;;6.15;4.13;;;19.40;39.60;;;;;;5094407;28;20215;-85
2023/07/18 01:57:50;;;;;;;6.55;4.00;;;19.30;42.50;;;;;;5111714;28;20220;-85
2023/07/18 02:00:20;;;;;;;5.90;3.85;;;19.30;43.20;;;;;;5100664;28;20192;-84
2023/07/18 02:02:48;;;;;;;5.78;3.72;;;19.20;45.60;;;;;;5106105;28;20191;-85
2023/07/18 02:05:17;;;;;;;6.20;4.32;;;19.20;45.80;;;;;;5103345;28;20554;-86
2023/07/18 02:07:44;;;;;;;5.75;3.40;;;19.20;47.80;;;;;;5087118;28;20566;-86
2023/07/18 02:10:13;;;;;;;6.22;3.47;;;19.20;47.70;;;;;;5099097;28;20196;-85
2023/07/18 02:12:40;;;;;;;6.43;3.92;;;19.10;48.30;;;;;;5108020;28;20207;-85
2023/07/18 02:15:13;;;;;;;7.60;4.10;;;19.00;49.80;;;;;;5110492;28;20628;-85
2023/07/18 02:17:40;;;;;;;6.05;4.45;;;19.00;53.30;;;;;;5097028;28;20314;-84
2023/07/18 02:20:09;;;;;;;7.72;4.20;;;18.90;55.80;;;;;;5099833;28;20196;-83
2023/07/18 02:22:36;;;;;;;6.97;3.67;;;18.90;58.20;;;;;;5101788;28;20210;-85
2023/07/18 02:25:04;;;;;;;6.80;3.83;;;18.90;60.60;;;;;;5084089;28;20200;-87
2023/07/18 02:27:32;;;;;;;6.60;4.25;;;18.90;61.30;;;;;;5088150;28;20210;-85
2023/07/18 02:30:00;;;;;;;8.63;3.75;;;18.90;63.60;;;;;;5099220;28;20212;-84
2023/07/18 02:32:29;;;;;;;6.88;3.90;;;18.90;65.90;;;;;;5099079;28;20647;-86
2023/07/18 02:34:55;;;;;;;7.88;3.97;;;19.00;64.80;;;;;;5104949;28;20201;-83
2023/07/18 02:37:23;;;;;;;6.93;4.03;;;19.10;63.00;;;;;;5108071;28;20221;-86
2023/07/18 02:39:50;;;;;;;7.20;4.32;;;19.10;64.00;;;;;;5089144;28;20276;-84
2023/07/18 02:42:17;;;;;;;7.72;4.13;;;19.00;67.70;;;;;;5103561;28;20581;-83
2023/07/18 02:44:45;;;;;;;5.78;4.00;;;18.90;71.30;;;;;;5107938;28;20192;-87
2023/07/18 02:47:11;;;;;;;5.22;4.00;;;18.90;70.40;;;;;;5109711;28;20192;-85
2023/07/18 02:49:40;;;;;;;10.38;4.18;;;18.80;68.60;;;;;;5101069;28;20196;-85
2023/07/18 02:52:07;;;;;;;8.80;5.05;;;18.80;71.80;;;;;;5103406;28;20201;-86
2023/07/18 02:54:34;;;;;;;4.97;3.80;;;18.80;71.70;;;;;;5105920;28;20196;-83
2023/07/18 02:57:01;;;;;;;5.47;3.75;;;18.80;71.10;;;;;;5101185;28;20220;-85
2023/07/18 02:59:28;;;;;;;6.28;4.10;;;18.90;70.40;;;;;;5106813;28;20192;-86
2023/07/18 03:01:57;;;;;;;8.88;4.28;;;18.90;69.30;;;;;;5074444;28;20192;-88
2023/07/18 03:04:24;;;;;;;6.82;4.05;;;18.70;72.60;;;;;;5088711;28;20200;-84
2023/07/18 03:06:52;;;;;;;7.45;4.40;;;18.60;75.30;;;;;;5104188;28;20269;-85
2023/07/18 03:09:21;;;;;;;6.97;4.53;;;18.60;76.80;;;;;;5109285;28;20277;-84
2023/07/18 03:11:49;;;;;;;6.90;4.30;;;18.60;76.50;;;;;;5108484;28;20199;-83
2023/07/18 03:14:16;;;;;;;5.63;4.80;;;18.50;75.30;;;;;;5106885;28;20238;-84
2023/07/18 03:16:45;;;;;;;7.85;4.75;;;18.50;75.40;;;;;;5086292;28;20226;-84
2023/07/18 03:19:12;;;;;;;7.90;4.45;;;18.30;76.40;;;;;;5085813;28;20213;-86
2023/07/18 03:21:39;;;;;;;7.75;4.95;;;18.20;78.00;;;;;;5101773;28;20200;-85
2023/07/18 03:24:08;;;;;;;5.30;3.90;;;18.20;79.50;;;;;;5105885;28;20676;-85
2023/07/18 03:26:37;;;;;;;5.70;4.78;;;18.10;79.50;;;;;;5101879;28;20245;-85
2023/07/18 03:29:05;;;;;;;6.82;4.70;;;18.20;80.30;;;;;;5103886;28;20555;-86
2023/07/18 03:31:32;;;;;;;8.43;4.60;;;18.30;81.40;;;;;;5090501;28;20768;-84
2023/07/18 03:33:59;;;;;;;5.22;4.18;;;18.30;82.30;;;;;;5100822;28;20739;-84
2023/07/18 03:36:26;;;;;;;7.00;5.15;;;18.30;82.70;;;;;;5090239;28;20266;-86
2023/07/18 03:38:53;;;;;;;7.43;5.18;;;18.40;85.40;;;;;;5105278;28;20629;-83
2023/07/18 03:41:21;;;;;;;5.47;4.60;;;18.40;86.80;;;;;;5103586;28;20215;-85
2023/07/18 03:43:48;;;;;;;8.35;5.28;;;18.40;87.90;;;;;;5108505;28;20191;-86
2023/07/18 03:46:15;;;;;;;8.05;5.60;;;18.20;90.10;;;;;;5089094;28;20215;-86
2023/07/18 03:48:42;;;;;;;10.25;5.72;;;18.20;91.00;;;;;;5090792;28;20203;-86
2023/07/18 03:51:09;;;;;;;8.95;5.72;;;18.20;91.50;;;;;;5103782;28;20210;-83
2023/07/18 03:53:35;;;;;;;7.43;5.65;;;18.10;92.20;;;;;;5099333;28;20197;-84
2023/07/18 03:56:04;;;;;;;9.52;6.15;;;18.00;92.20;;;;;;5111006;28;21299;-84
2023/07/18 03:58:32;;;;;;;8.20;6.10;;;18.00;92.40;;;;;;5101447;28;20710;-85
2023/07/18 04:00:59;;;;;;;9.85;6.28;;;17.90;92.80;;;;;;5109168;28;20198;-86
2023/07/18 04:03:26;;;;;;;8.52;5.93;;;17.80;93.20;;;;;;5110285;28;20195;-85
2023/07/18 04:05:53;;;;;;;6.82;5.72;;;17.80;93.50;;;;;;5107535;28;20203;-84
2023/07/18 04:08:20;;;;;;;10.38;5.85;;;17.70;93.70;;;;;;5093753;28;20200;-86
2023/07/18 04:10:47;;;;;;;7.70;6.28;;;17.70;93.80;;;;;;5089675;28;20196;-87
2023/07/18 04:13:14;;;;;;;7.72;5.82;;;17.60;94.10;;;;;;5112721;28;20203;-88
2023/07/18 04:15:43;;;;;;;8.88;6.20;;;17.70;94.20;;;;;;5087314;28;20748;-84
2023/07/18 04:18:10;;;;;;;10.00;6.60;;;17.70;94.20;;;;;;5111107;28;20228;-87
2023/07/18 04:20:37;;;;;;;10.40;6.47;;;17.80;94.30;;;;;;5091084;28;20212;-85
2023/07/18 04:23:04;;;;;;;8.05;6.32;;;17.70;94.00;;;;;;5088292;28;20199;-85
2023/07/18 04:25:35;;;;;;;8.02;6.13;;;17.80;94.10;;;;;;5104753;28;20205;-85
2023/07/18 04:28:02;;;;;;;9.52;6.45;;;17.80;93.90;;;;;;5090987;28;20244;-82
2023/07/18 04:30:29;;;;;;;9.90;6.30;;;17.90;93.70;;;;;;5083186;28;20203;-83
2023/07/18 04:32:57;;;;;;;9.68;6.45;;;17.90;93.70;;;;;;5082857;28;20195;-84
2023/07/18 04:35:24;;;;;;;7.00;5.97;;;18.00;93.90;;;;;;5108803;28;20207;-85
2023/07/18 04:37:51;;;;;;;10.93;6.25;;;18.00;93.70;;;;;;5109968;28;20238;-86
2023/07/18 04:40:18;;;;;;;11.88;6.05;;;18.10;93.20;;;;;;5101526;28;20632;-85
2023/07/18 04:42:45;;;;;;;6.22;5.60;;;18.10;93.20;;;;;;5102945;28;20196;-83
2023/07/18 04:45:12;;;;;;;8.60;6.35;;;18.10;93.00;;;;;;5100325;28;20203;-86
2023/07/18 04:47:39;;;;;;;7.75;6.40;;;18.20;92.70;;;;;;5099026;28;20203;-81
2023/07/18 04:50:10;;;;;;;9.52;6.05;;;18.20;92.50;;;;;;5111363;28;20196;-84
2023/07/18 04:52:37;;;;;;;8.07;5.88;;;18.30;92.20;;;;;;5086210;28;20195;-82
2023/07/18 04:55:05;;;;;;;10.07;6.38;;;18.40;92.50;;;;;;5100743;28;20197;-83
2023/07/18 04:57:34;;;;;;;9.65;6.13;;;18.40;92.90;;;;;;5104251;28;20231;-84
2023/07/18 05:00:02;;;;;;;8.75;6.15;;;18.50;93.00;;;;;;5109846;28;20191;-84
2023/07/18 05:02:29;;;;;;;7.97;5.88;;;18.60;92.90;;;;;;5084543;28;20200;-82
2023/07/18 05:04:56;;;;;;;9.52;6.32;;;18.60;92.80;;;;;;5100783;28;20816;-84
2023/07/18 05:07:25;;;;;;;7.68;6.05;;;18.70;92.60;;;;;;5103255;28;20195;-84
2023/07/18 05:09:52;;;;;;;9.07;5.80;;;18.80;92.30;;;;;;5107560;28;20207;-83
2023/07/18 05:12:19;;;;;;;10.68;5.97;;;18.80;91.70;;;;;;5103545;28;20200;-81
2023/07/18 05:14:45;;;;;;;7.93;5.80;;;19.10;91.60;;;;;;5097763;28;20203;-83
2023/07/18 05:17:13;;;;;;;7.43;5.60;;;19.30;90.50;;;;;;5108369;28;20227;-83
2023/07/18 05:19:40;;;;;;;11.20;5.75;;;19.50;86.30;;;;;;5097383;28;20213;-83
2023/07/18 05:22:07;;;;;;;10.45;5.40;;;19.70;80.80;;;;;;5102727;28;20200;-84
2023/07/18 05:24:35;;;;;;;6.18;5.20;;;19.80;71.30;;;;;;5101561;28;20559;-83
2023/07/18 05:27:02;;;;;;;7.80;5.25;;;19.80;72.90;;;;;;5104128;28;20207;-83
2023/07/18 05:29:29;;;;;;;8.40;5.63;;;19.90;60.00;;;;;;5103393;28;20203;-83
2023/07/18 05:31:56;;;;;;;8.50;4.63;;;20.00;62.90;;;;;;5105471;28;20196;-84
2023/07/18 05:34:23;;;;;;;6.90;4.82;;;20.20;64.60;;;;;;5103938;28;20234;-85
2023/07/18 05:36:50;;;;;;;7.15;4.80;;;20.70;57.80;;;;;;5087020;28;20192;-86
2023/07/18 05:39:17;;;;;;;10.52;4.82;;;20.90;54.40;;;;;;5104986;28;20193;-86
2023/07/18 05:41:45;;;;;;;8.43;4.80;;;21.00;50.30;;;;;;5093141;28;20195;-84
2023/07/18 05:44:12;;;;;;;6.35;4.80;;;21.40;51.00;;;;;;5108949;28;20833;-87
2023/07/18 05:46:40;;;;;;;8.20;4.45;;;21.70;47.70;;;;;;5105538;28;20631;-83
2023/07/18 05:49:07;;;;;;;6.90;4.57;;;22.10;35.30;;;;;;5084285;28;20211;-86
2023/07/18 05:51:34;;;;;;;10.35;4.60;;;22.30;31.50;;;;;;5107009;28;20204;-87
2023/07/18 05:54:04;;;;;;;7.93;4.30;;;22.30;30.90;;;;;;5109911;28;20200;-86
2023/07/18 05:56:31;;;;;;;8.07;4.60;;;22.40;31.10;;;;;;5090968;28;20254;-87
2023/07/18 05:59:01;;;;;;;7.95;4.20;;;23.00;26.20;;;;;;5085803;28;20224;-87
2023/07/18 06:01:28;;;;;;;8.68;4.60;;;23.20;25.50;;;;;;5086598;28;20193;-85
2023/07/18 06:03:56;;;;;;;8.27;4.70;;;22.80;27.40;;;;;;5110239;28;20312;-84
2023/07/18 06:06:22;;;;;;;8.23;4.22;;;22.50;30.30;;;;;;5111747;28;20197;-87
2023/07/18 06:08:50;;;;;;;8.85;4.75;;;22.30;28.30;;;;;;5099744;28;20676;-88
2023/07/18 06:11:18;;;;;;;9.25;4.57;;;22.00;27.50;;;;;;5093479;28;20204;-86
2023/07/18 06:13:45;;;;;;;6.97;4.00;;;21.90;30.60;;;;;;5106900;28;20219;-89
2023/07/18 06:16:14;;;;;;;6.18;4.28;;;21.80;33.60;;;;;;5106632;28;20203;-86
2023/07/18 06:18:41;;;;;;;7.57;4.10;;;21.80;28.10;;;;;;5088854;28;20224;-87
2023/07/18 06:21:08;;;;;;;9.25;3.90;;;21.80;27.20;;;;;;5101386;28;20200;-84
2023/07/18 06:23:35;;;;;;;8.23;5.22;;;21.90;24.40;;;;;;5078703;28;20200;-85
2023/07/18 06:26:04;;;;;;;8.85;5.00;;;21.90;25.40;;;;;;5105239;28;20202;-84
2023/07/18 06:28:31;;;;;;;5.30;3.55;;;21.90;26.10;;;;;;5088722;28;20570;-87
2023/07/18 06:30:58;;;;;;;7.25;4.03;;;21.90;22.40;;;;;;5090209;28;20647;-87
2023/07/18 06:33:27;;;;;;;7.65;3.45;;;22.00;22.20;;;;;;5108250;28;20207;-86
2023/07/18 06:35:55;;;;;;;5.03;3.13;;;22.10;22.00;;;;;;5109075;28;20279;-88
2023/07/18 06:38:22;;;;;;;5.70;3.20;;;22.10;22.00;;;;;;5084251;28;20216;-89
2023/07/18 06:47:13;;;;;;;4.40;3.42;;;22.20;23.50;;;;;;5100092;28;20614;-91
2023/07/18 06:52:31;;;;;;;6.85;3.83;;;22.20;22.20;;;;;;5054760;28;20270;-89
2023/07/18 06:54:58;;;;;;;6.43;3.50;;;22.40;21.00;;;;;;5096299;28;20202;-89
2023/07/18 06:57:25;;;;;;;15.30;8.73;;;22.50;19.70;;;;;;5097393;28;20220;-91
2023/07/18 06:59:54;;;;;;;6.20;3.42;;;22.60;21.90;;;;;;5115837;28;20188;-88
2023/07/18 07:02:21;;;;;;;9.60;3.80;;;22.60;20.70;;;;;;5111133;28;20196;-89
2023/07/18 07:10:17;;;;;;;10.00;3.15;;;22.80;18.60;;;;;;5102273;28;20714;-90
2023/07/18 07:12:44;;;;;;;5.82;2.88;;;22.80;18.40;;;;;;5089074;28;20257;-90
2023/07/18 07:15:11;;;;;;;5.75;3.10;;;23.10;17.20;;;;;;5113203;28;20554;-90
2023/07/18 07:17:39;;;;;;;5.40;3.10;;;23.80;14.40;;;;;;5089243;28;20239;-87
2023/07/18 07:20:14;;;;;;;6.75;2.92;;;24.10;15.20;;;;;;5115235;28;20282;-91
2023/07/18 07:22:43;;;;;;;6.50;3.40;;;23.90;13.90;;;;;;5096639;28;20199;-87
2023/07/18 07:25:13;;;;;;;8.05;3.25;;;23.80;15.50;;;;;;5084896;28;20219;-89
2023/07/18 07:27:40;;;;;;;7.32;3.40;;;23.50;16.50;;;;;;5108465;28;20255;-87
2023/07/18 07:30:16;;;;;;;3.63;2.88;;;23.60;16.60;;;;;;5093199;28;20195;-91
2023/07/18 07:32:43;;;;;;;4.63;3.25;;;23.70;16.30;;;;;;5114899;28;20191;-89
2023/07/18 07:37:56;;;;;;;5.97;3.88;;;23.90;15.20;;;;;;5116227;28;20211;-90
2023/07/18 07:43:04;;;;;;;4.82;3.30;;;23.90;17.30;;;;;;5121425;28;20200;-93
2023/07/18 07:48:20;;;;;;;6.15;3.50;;;24.00;17.70;;;;;;5123678;28;20629;-91
2023/07/18 07:56:10;;;;;;;8.60;4.07;;;24.10;17.60;;;;;;5098820;28;20206;-91
2023/07/18 07:58:37;;;;;;;6.82;3.78;;;24.20;16.30;;;;;;5105122;28;20781;-92
2023/07/18 08:01:04;;;;;;;8.80;3.90;;;24.50;16.90;;;;;;5095388;28;20204;-86
2023/07/18 08:03:31;;;;;;;6.68;4.03;;;24.60;17.80;;;;;;5098074;28;20193;-87
2023/07/18 08:06:00;;;;;;;9.35;3.97;;;25.00;17.50;;;;;;5111958;28;20207;-91
2023/07/18 08:08:27;;;;;;;6.90;3.83;;;24.80;15.90;;;;;;5108309;28;20212;-90
2023/07/18 08:10:54;;;;;;;6.35;3.50;;;24.70;16.20;;;;;;5112649;28;20192;-87
2023/07/18 08:13:20;;;;;;;8.10;3.95;;;24.90;15.40;;;;;;5112280;28;20199;-85
2023/07/18 08:15:47;;;;;;;7.38;4.32;;;25.00;14.90;;;;;;5114179;28;20196;-86
2023/07/18 08:18:14;;;;;;;5.68;4.18;;;25.00;16.50;;;;;;5095803;28;20223;-88
2023/07/18 08:20:41;;;;;;;4.40;3.90;;;25.10;15.50;;;;;;5091821;28;20226;-88
2023/07/18 08:23:17;;;;;;;6.05;4.40;;;24.80;15.70;;;;;;5112231;28;20601;-89
2023/07/18 08:26:02;;;;;;;6.60;3.67;;;24.80;16.50;;;;;;5108075;28;20197;-87
2023/07/18 08:28:29;;;;;;;5.68;4.20;;;24.50;16.40;;;;;;5102123;28;20200;-90
2023/07/18 08:30:56;;;;;;;6.90;3.70;;;24.80;16.80;;;;;;5109427;28;20199;-87
2023/07/18 08:33:24;;;;;;;6.03;4.28;;;25.30;15.80;;;;;;5111120;28;20203;-82
2023/07/18 08:35:51;;;;;;;6.20;3.95;;;26.50;14.90;;;;;;5084503;28;20531;-84
2023/07/18 08:38:20;;;;;;;8.25;4.50;;;28.00;12.80;;;;;;5104437;28;20231;-82
2023/07/18 08:40:48;;;;;;;8.90;4.60;;;30.00;8.60;;;;;;5106363;28;20199;-84
2023/07/18 08:43:16;;;;;;;9.30;4.40;;;30.80;7.40;;;;;;5099138;28;20195;-85
2023/07/18 08:45:43;;;;;;;8.57;4.50;;;32.00;5.50;;;;;;5088498;28;20231;-86
2023/07/18 08:48:12;;;;;;;5.55;4.18;;;33.00;3.80;;;;;;5109450;28;20199;-86
2023/07/18 08:50:41;;;;;;;6.68;4.65;;;33.60;2.70;;;;;;5111111;28;20200;-84
2023/07/18 08:53:08;;;;;;;8.02;4.93;;;33.30;3.70;;;;;;5104764;28;20206;-86
2023/07/18 08:55:38;;;;;;;5.25;4.43;;;33.60;3.00;;;;;;5108459;28;20196;-85
2023/07/18 08:58:06;;;;;;;7.75;4.80;;;34.20;1.80;;;;;;5107960;28;20665;-84
2023/07/18 09:00:33;;;;;;;6.63;4.82;;;33.20;3.00;;;;;;5107665;28;20290;-85
2023/07/18 09:03:00;;;;;;;7.20;5.18;;;33.60;2.80;;;;;;5106178;28;20211;-83
2023/07/18 09:05:33;;;;;;;5.30;4.80;;;34.30;2.80;;;;;;5103860;28;20209;-85
2023/07/18 09:08:01;;;;;;;6.03;4.65;;;34.60;1.70;;;;;;5110612;28;20285;-84
2023/07/18 09:13:26;;;;;;;5.93;5.00;;;34.40;1.80;;;;;;5105245;28;20286;-82
2023/07/18 09:15:52;;;;;;;6.75;4.72;;;34.80;1.00;;;;;;5101496;28;20203;-86
2023/07/18 09:21:32;;;;;;;5.75;4.80;;;34.60;1.90;;;;;;5087252;28;20200;-83
2023/07/18 09:27:30;;;;;;;6.10;5.43;;;35.00;1.00;;;;;;5106969;28;20199;-87
2023/07/18 09:29:59;;;;;;;6.22;5.35;;;35.10;1.50;;;;;;5102982;28;20202;-86
2023/07/18 09:32:30;;;;;;;6.53;5.68;;;35.40;1.00;;;;;;5101677;28;20628;-86
2023/07/18 09:34:59;;;;;;;6.13;5.30;;;35.20;1.00;;;;;;5088149;28;20218;-84
2023/07/18 09:37:27;;;;;;;5.97;5.32;;;34.70;1.30;;;;;;5102084;28;20800;-86
2023/07/18 09:39:55;;;;;;;5.97;5.43;;;34.50;2.40;;;;;;5086913;28;20219;-86
2023/07/18 09:42:24;;;;;;;6.38;5.35;;;35.10;2.90;;;;;;5112279;28;20200;-86
2023/07/18 09:44:51;;;;;;;7.60;5.68;;;35.10;1.80;;;;;;5110604;28;20248;-86
2023/07/18 09:47:23;;;;;;;6.20;5.53;;;35.10;1.30;;;;;;5103037;28;20196;-86
2023/07/18 09:49:51;;;;;;;5.82;5.30;;;35.30;2.30;;;;;;5107523;28;20206;-87
2023/07/18 09:52:22;;;;;;;8.35;5.53;;;34.80;2.50;;;;;;5109003;28;20191;-87
2023/07/18 09:54:53;;;;;;;6.20;5.68;;;35.10;2.80;;;;;;5110862;28;20657;-84
2023/07/18 09:57:21;;;;;;;6.53;5.95;;;35.40;2.80;;;;;;5108486;28;20195;-87
2023/07/18 09:59:50;;;;;;;8.57;5.97;;;35.10;2.10;;;;;;5106136;28;20218;-85
2023/07/18 10:02:17;;;;;;;7.90;5.72;;;35.40;2.30;;;;;;5104313;28;20242;-87
2023/07/18 10:04:48;;;;;;;6.65;6.05;;;35.40;1.10;;;;;;5090664;28;20678;-85
2023/07/18 10:08:00;;;;;;;6.35;5.63;;;35.70;1.00;;;;;;5109919;28;20213;-84
2023/07/18 10:38:29;;;;;;;6.32;5.72;;;34.90;4.20;;;;;;4860937;28;20236;-86
2023/07/18 10:41:01;;;;;;;6.47;5.70;;;34.70;2.10;;;;;;5045307;28;20570;-87
2023/07/18 10:43:33;;;;;;;7.18;5.55;;;35.20;1.80;;;;;;5089681;28;20195;-86
2023/07/18 10:46:06;;;;;;;7.30;5.38;;;34.40;3.10;;;;;;5099049;28;20214;-84
2023/07/18 10:48:33;;;;;;;7.55;5.50;;;33.40;6.10;;;;;;5105942;28;20196;-86
2023/07/18 10:51:03;;;;;;;5.90;5.30;;;33.20;7.00;;;;;;5090731;28;20202;-86
2023/07/18 10:53:30;;;;;;;6.63;5.95;;;33.90;7.10;;;;;;5092600;28;20191;-86
2023/07/18 10:55:59;;;;;;;6.10;5.22;;;33.50;7.90;;;;;;5105914;28;20202;-86
2023/07/18 10:58:25;;;;;;;6.90;5.38;;;33.30;5.60;;;;;;5070273;28;20207;-85
2023/07/18 11:00:52;;;;;;;5.55;5.00;;;32.90;7.50;;;;;;5109524;28;20222;-88
2023/07/18 11:03:20;;;;;;;5.78;5.28;;;32.50;8.20;;;;;;5103593;28;20564;-85
2023/07/18 11:05:48;;;;;;;7.50;5.50;;;33.60;6.00;;;;;;5074936;28;20274;-84
2023/07/18 11:08:25;;;;;;;6.47;5.28;;;34.30;3.00;;;;;;5103512;28;20192;-84
2023/07/18 11:10:54;;;;;;;8.25;5.82;;;34.10;3.90;;;;;;5106451;28;20651;-85
2023/07/18 11:13:28;;;;;;;8.10;5.22;;;33.10;6.10;;;;;;5087736;28;20199;-83
2023/07/18 11:15:57;;;;;;;8.18;4.70;;;32.40;10.50;;;;;;5103230;28;20286;-86
2023/07/18 11:18:24;;;;;;;5.75;5.18;;;31.80;9.70;;;;;;5105085;28;20774;-87
2023/07/18 11:20:53;;;;;;;8.70;5.20;;;31.40;13.10;;;;;;5096463;28;20539;-84
2023/07/18 11:23:21;;;;;;;6.50;5.55;;;31.30;10.90;;;;;;5102594;28;20202;-89
2023/07/18 11:25:48;;;;;;;7.00;5.30;;;31.30;10.30;;;;;;5103139;28;20225;-85
2023/07/18 11:28:15;;;;;;;6.32;5.00;;;31.10;12.20;;;;;;5105970;28;20191;-86
2023/07/18 11:30:46;;;;;;;9.73;5.20;;;31.00;11.00;;;;;;5102223;28;20253;-85
2023/07/18 11:33:13;;;;;;;9.75;5.32;;;31.10;9.30;;;;;;5105022;28;20195;-84
2023/07/18 11:35:45;;;;;;;6.22;4.88;;;30.80;10.20;;;;;;5097655;28;20203;-84
2023/07/18 11:38:12;;;;;;;6.28;4.75;;;30.40;9.80;;;;;;5103041;28;20721;-84
2023/07/18 11:40:39;;;;;;;8.95;5.18;;;30.20;10.50;;;;;;5098817;28;20216;-86
2023/07/18 11:43:06;;;;;;;7.88;5.40;;;30.00;12.30;;;;;;5106987;28;20198;-84
2023/07/18 11:45:34;;;;;;;6.95;5.10;;;29.90;10.90;;;;;;5102553;28;20198;-87
2023/07/18 11:48:06;;;;;;;8.95;5.10;;;30.00;10.80;;;;;;5104163;28;20200;-87
2023/07/18 11:50:33;;;;;;;8.07;5.03;;;30.10;10.90;;;;;;5108972;28;20244;-86
2023/07/18 11:53:00;;;;;;;7.45;5.00;;;30.10;11.40;;;;;;5107532;28;20199;-86
2023/07/18 11:55:28;;;;;;;5.43;4.93;;;30.20;11.30;;;;;;5105943;28;20561;-85
2023/07/18 11:57:55;;;;;;;7.60;5.43;;;30.10;11.50;;;;;;5089381;28;20221;-87
2023/07/18 12:00:22;;;;;;;5.88;4.65;;;29.60;13.60;;;;;;5087756;28;20688;-83
2023/07/18 12:02:49;;;;;;;9.98;5.25;;;29.20;13.20;;;;;;5099685;28;20675;-86
2023/07/18 12:05:18;;;;;;;9.20;4.82;;;29.10;13.70;;;;;;5106993;28;20196;-85
2023/07/18 12:07:45;;;;;;;6.63;4.97;;;29.20;13.50;;;;;;5101734;28;20551;-83
2023/07/18 12:10:14;;;;;;;7.13;5.30;;;29.30;11.60;;;;;;5108908;28;20207;-81
2023/07/18 12:12:41;;;;;;;7.93;5.18;;;29.10;12.80;;;;;;5105823;28;20581;-82
2023/07/18 12:15:10;;;;;;;10.95;5.22;;;29.20;12.90;;;;;;5104241;28;20204;-86
2023/07/18 12:17:38;;;;;;;10.65;5.47;;;29.60;14.60;;;;;;5110671;28;20208;-82
2023/07/18 12:20:07;;;;;;;8.57;5.03;;;29.90;11.80;;;;;;5100752;28;20242;-85
2023/07/18 12:22:37;;;;;;;7.15;4.55;;;29.80;11.60;;;;;;5103009;28;20195;-86
2023/07/18 12:25:04;;;;;;;8.73;5.32;;;29.70;12.90;;;;;;5104434;28;20555;-87
2023/07/18 12:27:32;;;;;;;8.98;5.22;;;29.30;13.80;;;;;;5108624;28;20196;-85
2023/07/18 12:29:59;;;;;;;6.10;4.95;;;28.80;14.30;;;;;;5089553;28;20225;-84
2023/07/18 12:32:25;;;;;;;6.80;5.05;;;28.50;15.20;;;;;;5099807;28;20203;-85
2023/07/18 12:34:53;;;;;;;6.75;5.03;;;28.40;15.80;;;;;;5102568;28;20202;-82
2023/07/18 12:37:20;;;;;;;6.75;5.05;;;28.20;14.50;;;;;;5103885;28;20630;-81
2023/07/18 12:39:49;;;;;;;8.88;5.15;;;28.00;15.20;;;;;;5102955;28;20216;-82
2023/07/18 12:42:16;;;;;;;6.13;4.95;;;27.80;15.50;;;;;;5106347;28;20192;-81
2023/07/18 12:44:44;;;;;;;7.32;4.95;;;27.60;15.40;;;;;;5102386;28;20653;-82
2023/07/18 12:47:11;;;;;;;10.70;5.10;;;27.50;15.40;;;;;;5110556;28;20195;-82
2023/07/18 12:49:39;;;;;;;9.77;5.30;;;27.40;15.30;;;;;;5110701;28;20191;-82
2023/07/18 12:52:07;;;;;;;8.57;5.32;;;27.30;16.20;;;;;;5101933;28;20188;-84
2023/07/18 12:54:34;;;;;;;8.30;5.68;;;27.30;18.00;;;;;;5108890;28;20188;-84
2023/07/18 12:57:04;;;;;;;6.93;4.85;;;27.00;19.00;;;;;;5110947;28;20196;-87
2023/07/18 12:59:31;;;;;;;6.95;4.85;;;26.80;21.00;;;;;;5105808;28;20234;-84
2023/07/18 13:01:59;;;;;;;8.52;5.13;;;26.50;23.10;;;;;;5112012;28;20200;-86
2023/07/18 13:04:25;;;;;;;7.63;4.75;;;26.20;22.40;;;;;;5100646;28;20196;-85
2023/07/18 13:06:52;;;;;;;8.32;5.00;;;25.90;23.80;;;;;;5106843;28;20200;-88
2023/07/18 13:09:20;;;;;;;249.95;225.85;;;25.80;26.00;;;;;;5102741;28;20209;-85
2023/07/18 13:11:47;;;;;;;13.40;12.00;;;25.60;26.80;;;;;;5105091;28;20661;-84
2023/07/18 13:14:18;;;;;;;7.30;5.43;;;25.60;30.10;;;;;;5098964;28;20192;-85
2023/07/18 13:16:45;;;;;;;10.80;7.25;;;25.70;34.40;;;;;;5108029;28;20199;-85
2023/07/18 13:19:12;;;;;;;8.27;5.18;;;25.50;36.60;;;;;;5108812;28;20216;-84
2023/07/18 13:21:39;;;;;;;7.85;5.65;;;25.50;48.60;;;;;;5110030;28;20192;-83
2023/07/18 13:24:06;;;;;;;8.63;5.47;;;25.60;44.90;;;;;;5095166;28;20224;-86
2023/07/18 13:26:33;;;;;;;11.88;5.57;;;25.50;41.40;;;;;;5098907;28;20292;-87
2023/07/18 13:29:01;;;;;;;7.97;5.20;;;25.20;47.00;;;;;;5085433;28;20257;-88
2023/07/18 13:31:29;;;;;;;7.93;5.25;;;24.90;53.60;;;;;;5109603;28;20204;-86
2023/07/18 13:33:56;;;;;;;8.38;5.25;;;24.70;60.20;;;;;;5102927;28;20198;-85
2023/07/18 13:36:23;;;;;;;5.60;4.90;;;25.00;54.30;;;;;;5105248;28;20188;-86
2023/07/18 13:38:50;;;;;;;8.02;5.28;;;25.10;54.40;;;;;;5106578;28;20200;-87
2023/07/18 13:41:17;;;;;;;7.25;5.35;;;25.20;45.80;;;;;;5089230;28;21055;-85
2023/07/18 13:43:44;;;;;;;11.30;4.88;;;25.30;48.50;;;;;;5103728;28;20193;-79
2023/07/18 13:46:11;;;;;;;7.05;5.05;;;25.30;44.50;;;;;;5104512;28;20202;-82
2023/07/18 13:48:39;;;;;;;7.72;5.05;;;25.40;44.50;;;;;;5098489;28;20192;-83
2023/07/18 13:51:06;;;;;;;8.73;4.72;;;25.80;36.80;;;;;;5106837;28;20200;-83
2023/07/18 13:53:33;;;;;;;7.13;4.32;;;25.90;39.90;;;;;;5107626;28;20207;-88
2023/07/18 13:56:00;;;;;;;9.27;5.35;;;25.90;35.50;;;;;;5101644;28;20220;-85
2023/07/18 13:58:28;;;;;;;9.68;5.47;;;25.70;36.70;;;;;;5074796;28;20203;-80